sensor_id;sensor_type;location;lat;lon;timestamp;pressure;altitude;pressure_sealevel;temperature;humidity
52469;BME280;38381;53.688;10.776;2023-11-19T00:00:45;100714.19;;;4.02;100.00
52469;BME280;38381;53.688;10.776;2023-11-19T00:05:46;100690.22;;;4.01;100.00
52469;BME280;38381;53.688;10.776;2023-11-19T00:10:46;100680.38;;;4.15;100.00
52469;BME280;38381;53.688;10.776;2023-11-19T00:15:46;100671.50;;;4.04;100.00
52469;BME280;38381;53.688;10.776;2023-11-19T00:20:47;100653.16;;;3.92;100.00
52469;BME280;38381;53.688;10.776;2023-11-19T00:25:48;100631.78;;;3.93;100.00
52469;BME280;38381;53.688;10.776;2023-11-19T00:30:48;100622.50;;;3.96;100.00
52469;BME280;38381;53.688;10.776;2023-11-19T00:35:49;100608.56;;;3.88;100.00
52469;BME280;38381;53.688;10.776;2023-11-19T00:40:49;100587.44;;;3.97;100.00
52469;BME280;38381;53.688;10.776;2023-11-19T00:45:50;100577.31;;;4.01;100.00
52469;BME280;38381;53.688;10.776;2023-11-19T00:50:51;100560.00;;;3.94;100.00
52469;BME280;38381;53.688;10.776;2023-11-19T00:55:51;100560.00;;;3.94;100.00
52469;BME280;38381;53.688;10.776;2023-11-19T01:00:52;100538.63;;;3.95;100.00
52469;BME280;38381;53.688;10.776;2023-11-19T01:05:52;100514.78;;;3.98;100.00
52469;BME280;38381;53.688;10.776;2023-11-19T01:10:52;100522.84;;;4.10;100.00
52469;BME280;38381;53.688;10.776;2023-11-19T01:15:53;100499.59;;;4.06;100.00
52469;BME280;38381;53.688;10.776;2023-11-19T01:20:53;100490.91;;;4.00;100.00
52469;BME280;38381;53.688;10.776;2023-11-19T01:25:54;100479.03;;;4.04;100.00
52469;BME280;38381;53.688;10.776;2023-11-19T01:30:54;100479.06;;;4.06;100.00
52469;BME280;38381;53.688;10.776;2023-11-19T01:35:55;100467.31;;;4.14;100.00
52469;BME280;38381;53.688;10.776;2023-11-19T01:40:58;100438.91;;;4.08;100.00
52469;BME280;38381;53.688;10.776;2023-11-19T01:45:59;100436.50;;;4.12;100.00
52469;BME280;38381;53.688;10.776;2023-11-19T01:51:00;100413.81;;;3.97;100.00
52469;BME280;38381;53.688;10.776;2023-11-19T01:56:03;100385.06;;;4.09;100.00
52469;BME280;38381;53.688;10.776;2023-11-19T02:01:05;100375.97;;;4.20;100.00
52469;BME280;38381;53.688;10.776;2023-11-19T02:06:06;100359.47;;;4.11;100.00
52469;BME280;38381;53.688;10.776;2023-11-19T02:11:07;100363.84;;;4.15;100.00
52469;BME280;38381;53.688;10.776;2023-11-19T02:16:08;100341.50;;;4.11;100.00
52469;BME280;38381;53.688;10.776;2023-11-19T02:21:11;100334.91;;;4.20;100.00
52469;BME280;38381;53.688;10.776;2023-11-19T02:26:18;100328.88;;;4.18;100.00
52469;BME280;38381;53.688;10.776;2023-11-19T02:31:22;100326.59;;;4.31;100.00
52469;BME280;38381;53.688;10.776;2023-11-19T02:36:23;100308.19;;;4.47;100.00
52469;BME280;38381;53.688;10.776;2023-11-19T02:41:24;100288.81;;;4.25;100.00
52469;BME280;38381;53.688;10.776;2023-11-19T02:46:24;100268.63;;;4.39;100.00
52469;BME280;38381;53.688;10.776;2023-11-19T02:51:25;100247.59;;;4.57;100.00
52469;BME280;38381;53.688;10.776;2023-11-19T02:56:25;100238.72;;;4.41;100.00
52469;BME280;38381;53.688;10.776;2023-11-19T03:01:26;100219.13;;;4.46;100.00
52469;BME280;38381;53.688;10.776;2023-11-19T03:06:34;100203.66;;;4.43;100.00
52469;BME280;38381;53.688;10.776;2023-11-19T03:11:34;100187.91;;;4.28;100.00
52469;BME280;38381;53.688;10.776;2023-11-19T03:16:35;100175.84;;;4.23;100.00
52469;BME280;38381;53.688;10.776;2023-11-19T03:21:35;100166.44;;;4.24;100.00
52469;BME280;38381;53.688;10.776;2023-11-19T03:26:36;100158.94;;;4.33;100.00
52469;BME280;38381;53.688;10.776;2023-11-19T03:31:42;100164.66;;;4.59;100.00
52469;BME280;38381;53.688;10.776;2023-11-19T03:36:43;100146.84;;;4.28;100.00
52469;BME280;38381;53.688;10.776;2023-11-19T03:41:45;100138.63;;;4.44;100.00
52469;BME280;38381;53.688;10.776;2023-11-19T03:46:47;100140.47;;;4.50;100.00
52469;BME280;38381;53.688;10.776;2023-11-19T03:51:47;100128.63;;;4.56;100.00
52469;BME280;38381;53.688;10.776;2023-11-19T03:56:48;100112.88;;;4.39;100.00
52469;BME280;38381;53.688;10.776;2023-11-19T04:01:48;100097.03;;;4.60;100.00
52469;BME280;38381;53.688;10.776;2023-11-19T04:06:48;100089.44;;;4.67;100.00
52469;BME280;38381;53.688;10.776;2023-11-19T04:11:49;100090.28;;;4.66;100.00
52469;BME280;38381;53.688;10.776;2023-11-19T04:16:49;100083.91;;;4.47;100.00
52469;BME280;38381;53.688;10.776;2023-11-19T04:21:51;100080.69;;;4.57;100.00
52469;BME280;38381;53.688;10.776;2023-11-19T04:26:52;100067.06;;;4.59;100.00
52469;BME280;38381;53.688;10.776;2023-11-19T04:31:52;100056.25;;;4.77;100.00
52469;BME280;38381;53.688;10.776;2023-11-19T04:36:53;100046.78;;;4.75;100.00
52469;BME280;38381;53.688;10.776;2023-11-19T04:41:54;100039.13;;;4.76;100.00
52469;BME280;38381;53.688;10.776;2023-11-19T04:46:54;100018.78;;;4.89;100.00
52469;BME280;38381;53.688;10.776;2023-11-19T04:51:55;100015.56;;;5.00;100.00
52469;BME280;38381;53.688;10.776;2023-11-19T04:56:55;100017.94;;;4.88;100.00
52469;BME280;38381;53.688;10.776;2023-11-19T05:01:56;100008.06;;;5.14;100.00
52469;BME280;38381;53.688;10.776;2023-11-19T05:06:56;99994.31;;;5.11;100.00
52469;BME280;38381;53.688;10.776;2023-11-19T05:11:56;100004.59;;;5.11;100.00
52469;BME280;38381;53.688;10.776;2023-11-19T05:16:57;100000.41;;;5.17;100.00
52469;BME280;38381;53.688;10.776;2023-11-19T05:21:57;99997.94;;;5.23;100.00
52469;BME280;38381;53.688;10.776;2023-11-19T05:26:58;99997.94;;;5.23;100.00
52469;BME280;38381;53.688;10.776;2023-11-19T05:31:58;99974.84;;;5.25;100.00
52469;BME280;38381;53.688;10.776;2023-11-19T05:36:58;99961.19;;;5.31;100.00
52469;BME280;38381;53.688;10.776;2023-11-19T05:41:59;99963.25;;;5.55;100.00
52469;BME280;38381;53.688;10.776;2023-11-19T05:47:00;99952.88;;;5.49;100.00
52469;BME280;38381;53.688;10.776;2023-11-19T05:52:00;99946.88;;;5.48;100.00
52469;BME280;38381;53.688;10.776;2023-11-19T05:57:04;99948.75;;;5.61;100.00
52469;BME280;38381;53.688;10.776;2023-11-19T06:02:05;99946.31;;;5.69;100.00
52469;BME280;38381;53.688;10.776;2023-11-19T06:07:05;99939.56;;;5.77;100.00
52469;BME280;38381;53.688;10.776;2023-11-19T06:12:06;99947.31;;;5.80;100.00
52469;BME280;38381;53.688;10.776;2023-11-19T06:17:07;99946.44;;;5.78;100.00
52469;BME280;38381;53.688;10.776;2023-11-19T06:22:08;99939.84;;;5.99;100.00
52469;BME280;38381;53.688;10.776;2023-11-19T06:27:09;99935.59;;;6.01;100.00
52469;BME280;38381;53.688;10.776;2023-11-19T06:32:09;99939.19;;;6.17;100.00
52469;BME280;38381;53.688;10.776;2023-11-19T06:37:10;99930.50;;;6.07;100.00
52469;BME280;38381;53.688;10.776;2023-11-19T06:42:10;99936.53;;;6.11;100.00
52469;BME280;38381;53.688;10.776;2023-11-19T06:47:11;99940.13;;;6.25;100.00
52469;BME280;38381;53.688;10.776;2023-11-19T06:52:11;99951.56;;;6.52;100.00
52469;BME280;38381;53.688;10.776;2023-11-19T06:57:12;99934.28;;;6.38;100.00
52469;BME280;38381;53.688;10.776;2023-11-19T07:02:12;99939.59;;;6.55;100.00
52469;BME280;38381;53.688;10.776;2023-11-19T07:07:13;99934.44;;;6.55;100.00
52469;BME280;38381;53.688;10.776;2023-11-19T07:12:15;99922.50;;;6.68;100.00
52469;BME280;38381;53.688;10.776;2023-11-19T07:17:15;99927.09;;;7.01;100.00
52469;BME280;38381;53.688;10.776;2023-11-19T07:22:17;99931.50;;;7.18;100.00
52469;BME280;38381;53.688;10.776;2023-11-19T07:27:18;99939.28;;;7.27;100.00
52469;BME280;38381;53.688;10.776;2023-11-19T07:32:19;99921.25;;;7.27;100.00
52469;BME280;38381;53.688;10.776;2023-11-19T07:37:19;99927.34;;;7.38;100.00
52469;BME280;38381;53.688;10.776;2023-11-19T07:42:19;99914.53;;;7.51;100.00
52469;BME280;38381;53.688;10.776;2023-11-19T07:47:20;99920.59;;;7.63;100.00
52469;BME280;38381;53.688;10.776;2023-11-19T07:52:23;99918.97;;;7.84;100.00
52469;BME280;38381;53.688;10.776;2023-11-19T07:57:23;99922.47;;;8.00;100.00
52469;BME280;38381;53.688;10.776;2023-11-19T08:02:24;99933.81;;;8.51;100.00
52469;BME280;38381;53.688;10.776;2023-11-19T08:07:25;99926.97;;;8.84;100.00
52469;BME280;38381;53.688;10.776;2023-11-19T08:12:25;99920.03;;;9.01;100.00
52469;BME280;38381;53.688;10.776;2023-11-19T08:17:26;99915.69;;;9.14;100.00
52469;BME280;38381;53.688;10.776;2023-11-19T08:22:26;99925.16;;;9.32;100.00
52469;BME280;38381;53.688;10.776;2023-11-19T08:27:27;99926.00;;;9.45;100.00
52469;BME280;38381;53.688;10.776;2023-11-19T08:32:27;99935.47;;;9.58;100.00
52469;BME280;38381;53.688;10.776;2023-11-19T08:37:27;99934.53;;;9.72;100.00
52469;BME280;38381;53.688;10.776;2023-11-19T08:42:28;99941.41;;;9.93;100.00
52469;BME280;38381;53.688;10.776;2023-11-19T08:47:29;99936.13;;;10.08;100.00
52469;BME280;38381;53.688;10.776;2023-11-19T08:52:30;99930.00;;;10.24;100.00
52469;BME280;38381;53.688;10.776;2023-11-19T08:57:31;99932.56;;;10.35;100.00
52469;BME280;38381;53.688;10.776;2023-11-19T09:02:33;99932.47;;;10.51;100.00
52469;BME280;38381;53.688;10.776;2023-11-19T09:07:34;99945.41;;;10.58;100.00
52469;BME280;38381;53.688;10.776;2023-11-19T09:12:34;99941.91;;;10.58;100.00
52469;BME280;38381;53.688;10.776;2023-11-19T09:17:35;99939.28;;;10.69;100.00
52469;BME280;38381;53.688;10.776;2023-11-19T09:22:35;99952.16;;;10.78;100.00
52469;BME280;38381;53.688;10.776;2023-11-19T09:27:36;99944.19;;;11.02;100.00
52469;BME280;38381;53.688;10.776;2023-11-19T09:32:36;99949.41;;;10.99;100.00
52469;BME280;38381;53.688;10.776;2023-11-19T09:37:37;99951.16;;;10.96;100.00
52469;BME280;38381;53.688;10.776;2023-11-19T09:42:47;99957.25;;;10.90;100.00
52469;BME280;38381;53.688;10.776;2023-11-19T09:47:50;99952.00;;;10.99;100.00
52469;BME280;38381;53.688;10.776;2023-11-19T09:52:52;99950.16;;;11.11;100.00
52469;BME280;38381;53.688;10.776;2023-11-19T09:57:53;99955.28;;;11.17;100.00
52469;BME280;38381;53.688;10.776;2023-11-19T10:02:54;99958.69;;;11.26;100.00
52469;BME280;38381;53.688;10.776;2023-11-19T10:07:57;99950.84;;;11.33;100.00
52469;BME280;38381;53.688;10.776;2023-11-19T10:12:59;99951.66;;;11.36;99.38
52469;BME280;38381;53.688;10.776;2023-11-19T10:18:00;99948.97;;;11.45;97.82
52469;BME280;38381;53.688;10.776;2023-11-19T10:23:01;99944.66;;;11.44;97.52
52469;BME280;38381;53.688;10.776;2023-11-19T10:28:01;99949.03;;;11.41;96.05
52469;BME280;38381;53.688;10.776;2023-11-19T10:33:09;99942.81;;;11.56;95.51
52469;BME280;38381;53.688;10.776;2023-11-19T10:38:14;99945.31;;;11.65;94.31
52469;BME280;38381;53.688;10.776;2023-11-19T10:43:21;99953.06;;;11.68;94.18
52469;BME280;38381;53.688;10.776;2023-11-19T10:48:25;99956.50;;;11.70;93.00
52469;BME280;38381;53.688;10.776;2023-11-19T10:53:28;99949.69;;;11.60;92.56
52469;BME280;38381;53.688;10.776;2023-11-19T10:58:32;99960.06;;;11.61;92.77
52469;BME280;38381;53.688;10.776;2023-11-19T11:03:40;99959.16;;;11.64;92.64
52469;BME280;38381;53.688;10.776;2023-11-19T11:08:41;99966.06;;;11.66;92.21
52469;BME280;38381;53.688;10.776;2023-11-19T11:13:42;99965.97;;;11.74;91.31
52469;BME280;38381;53.688;10.776;2023-11-19T11:18:45;99959.88;;;11.78;90.97
52469;BME280;38381;53.688;10.776;2023-11-19T11:40:24;99966.81;;;11.79;90.30
52469;BME280;38381;53.688;10.776;2023-11-19T11:45:37;99973.75;;;11.74;91.47
52469;BME280;38381;53.688;10.776;2023-11-19T11:50:53;99974.69;;;11.70;92.50
52469;BME280;38381;53.688;10.776;2023-11-19T11:55:54;99971.31;;;11.62;92.93
52469;BME280;38381;53.688;10.776;2023-11-19T12:00:57;99981.88;;;11.46;93.38
52469;BME280;38381;53.688;10.776;2023-11-19T12:05:58;99976.59;;;11.53;93.77
52469;BME280;38381;53.688;10.776;2023-11-19T12:11:00;99983.50;;;11.57;93.77
52469;BME280;38381;53.688;10.776;2023-11-19T12:21:02;99969.81;;;11.39;94.56
52469;BME280;38381;53.688;10.776;2023-11-19T12:26:02;99980.16;;;11.42;94.41
52469;BME280;38381;53.688;10.776;2023-11-19T12:31:10;99982.75;;;11.42;94.62
52469;BME280;38381;53.688;10.776;2023-11-19T12:36:10;99974.88;;;11.50;94.38
52469;BME280;38381;53.688;10.776;2023-11-19T12:41:11;99975.69;;;11.57;93.71
52469;BME280;38381;53.688;10.776;2023-11-19T12:46:22;99980.00;;;11.59;92.45
52469;BME280;38381;53.688;10.776;2023-11-19T12:51:30;99983.56;;;11.46;92.43
52469;BME280;38381;53.688;10.776;2023-11-19T12:56:31;99986.22;;;11.40;92.27
52469;BME280;38381;53.688;10.776;2023-11-19T13:01:32;99981.81;;;11.51;93.25
52469;BME280;38381;53.688;10.776;2023-11-19T13:06:44;99981.88;;;11.45;93.34
52469;BME280;38381;53.688;10.776;2023-11-19T13:11:45;99978.38;;;11.47;93.64
52469;BME280;38381;53.688;10.776;2023-11-19T13:16:46;99977.47;;;11.52;94.17
52469;BME280;38381;53.688;10.776;2023-11-19T13:21:47;99967.91;;;11.55;93.60
52469;BME280;38381;53.688;10.776;2023-11-19T13:26:48;99974.03;;;11.50;94.43
52469;BME280;38381;53.688;10.776;2023-11-19T13:31:49;99976.59;;;11.53;93.76
52469;BME280;38381;53.688;10.776;2023-11-19T13:36:50;99974.88;;;11.53;93.82
52469;BME280;38381;53.688;10.776;2023-11-19T13:41:50;99975.75;;;11.51;92.36
52469;BME280;38381;53.688;10.776;2023-11-19T13:46:50;99973.09;;;11.55;92.20
52469;BME280;38381;53.688;10.776;2023-11-19T13:51:51;99973.97;;;11.57;91.37
52469;BME280;38381;53.688;10.776;2023-11-19T13:56:57;99965.38;;;11.47;91.08
52469;BME280;38381;53.688;10.776;2023-11-19T14:02:01;99972.25;;;11.53;90.96
52469;BME280;38381;53.688;10.776;2023-11-19T14:07:02;99970.47;;;11.60;90.62
52469;BME280;38381;53.688;10.776;2023-11-19T14:12:03;99973.94;;;11.59;90.24
52469;BME280;38381;53.688;10.776;2023-11-19T14:17:04;99983.44;;;11.63;90.33
52469;BME280;38381;53.688;10.776;2023-11-19T14:22:05;99984.47;;;11.46;90.97
52469;BME280;38381;53.688;10.776;2023-11-19T14:27:05;99984.47;;;11.46;90.12
52469;BME280;38381;53.688;10.776;2023-11-19T14:32:06;99981.03;;;11.43;90.60
52469;BME280;38381;53.688;10.776;2023-11-19T14:37:06;99976.63;;;11.51;90.10
52469;BME280;38381;53.688;10.776;2023-11-19T14:42:07;99979.19;;;11.53;89.80
52469;BME280;38381;53.688;10.776;2023-11-19T14:47:08;99975.91;;;11.35;89.30
52469;BME280;38381;53.688;10.776;2023-11-19T14:52:09;99974.97;;;11.41;89.55
52469;BME280;38381;53.688;10.776;2023-11-19T14:57:10;99975.84;;;11.41;89.55
52469;BME280;38381;53.688;10.776;2023-11-19T15:02:11;99974.03;;;11.50;89.36
52469;BME280;38381;53.688;10.776;2023-11-19T15:07:11;99986.22;;;11.40;90.17
52469;BME280;38381;53.688;10.776;2023-11-19T15:12:12;99988.88;;;11.37;90.65
52469;BME280;38381;53.688;10.776;2023-11-19T15:17:12;99994.91;;;11.40;91.72
52469;BME280;38381;53.688;10.776;2023-11-19T15:22:12;99991.59;;;11.21;91.50
52469;BME280;38381;53.688;10.776;2023-11-19T15:27:13;99992.53;;;11.13;91.75
52469;BME280;38381;53.688;10.776;2023-11-19T15:32:14;100002.91;;;11.13;91.96
52469;BME280;38381;53.688;10.776;2023-11-19T15:37:14;99997.78;;;11.05;92.33
52469;BME280;38381;53.688;10.776;2023-11-19T15:42:15;100014.19;;;11.08;93.08
52469;BME280;38381;53.688;10.776;2023-11-19T15:47:16;100018.56;;;11.00;93.27
52469;BME280;38381;53.688;10.776;2023-11-19T15:52:16;100029.00;;;10.94;93.48
52469;BME280;38381;53.688;10.776;2023-11-19T15:57:16;100029.88;;;10.90;93.11
52469;BME280;38381;53.688;10.776;2023-11-19T16:02:17;100031.66;;;10.85;92.90
52469;BME280;38381;53.688;10.776;2023-11-19T16:07:18;100042.09;;;10.76;92.79
52469;BME280;38381;53.688;10.776;2023-11-19T16:12:20;100049.91;;;10.68;92.39
52469;BME280;38381;53.688;10.776;2023-11-19T16:17:20;100059.50;;;10.52;92.65
52469;BME280;38381;53.688;10.776;2023-11-19T16:22:21;100064.72;;;10.46;92.06
52469;BME280;38381;53.688;10.776;2023-11-19T16:27:21;100062.06;;;10.57;91.90
52469;BME280;38381;53.688;10.776;2023-11-19T16:32:22;100062.06;;;10.55;91.83
52469;BME280;38381;53.688;10.776;2023-11-19T16:37:22;100070.72;;;10.50;91.10
52469;BME280;38381;53.688;10.776;2023-11-19T16:42:23;100062.97;;;10.48;91.44
52469;BME280;38381;53.688;10.776;2023-11-19T16:47:23;100060.41;;;10.39;91.98
52469;BME280;38381;53.688;10.776;2023-11-19T16:52:24;100063.00;;;10.42;92.86
52469;BME280;38381;53.688;10.776;2023-11-19T16:57:28;100068.22;;;10.28;93.46
52469;BME280;38381;53.688;10.776;2023-11-19T17:02:29;100065.63;;;10.33;93.95
52469;BME280;38381;53.688;10.776;2023-11-19T17:07:30;100072.56;;;10.18;95.77
52469;BME280;38381;53.688;10.776;2023-11-19T17:12:30;100077.72;;;10.32;95.44
52469;BME280;38381;53.688;10.776;2023-11-19T17:17:34;100079.44;;;10.25;95.96
52469;BME280;38381;53.688;10.776;2023-11-19T17:22:39;100077.69;;;10.29;95.98
52469;BME280;38381;53.688;10.776;2023-11-19T17:27:40;100072.53;;;10.35;95.49
52469;BME280;38381;53.688;10.776;2023-11-19T17:32:43;100075.13;;;10.23;96.13
52469;BME280;38381;53.688;10.776;2023-11-19T17:37:43;100077.72;;;10.18;96.76
52469;BME280;38381;53.688;10.776;2023-11-19T17:42:44;100069.97;;;10.12;97.68
52469;BME280;38381;53.688;10.776;2023-11-19T17:47:44;100075.13;;;10.18;97.03
52469;BME280;38381;53.688;10.776;2023-11-19T17:52:45;100089.00;;;10.11;96.83
52469;BME280;38381;53.688;10.776;2023-11-19T17:57:45;100082.06;;;10.19;96.31
52469;BME280;38381;53.688;10.776;2023-11-19T18:02:46;100082.09;;;10.13;96.15
52469;BME280;38381;53.688;10.776;2023-11-19T18:07:52;100076.88;;;10.16;96.31
52469;BME280;38381;53.688;10.776;2023-11-19T18:12:52;100081.22;;;10.08;96.16
52469;BME280;38381;53.688;10.776;2023-11-19T18:17:53;100089.00;;;10.10;96.04
52469;BME280;38381;53.688;10.776;2023-11-19T18:22:54;100086.41;;;10.05;96.58
52469;BME280;38381;53.688;10.776;2023-11-19T18:27:54;100085.56;;;9.97;96.98
52469;BME280;38381;53.688;10.776;2023-11-19T18:32:55;100090.75;;;9.87;96.96
52469;BME280;38381;53.688;10.776;2023-11-19T18:37:55;100090.75;;;9.91;96.54
52469;BME280;38381;53.688;10.776;2023-11-19T18:42:56;100088.19;;;9.78;96.83
52469;BME280;38381;53.688;10.776;2023-11-19T18:47:56;100094.22;;;9.71;97.71
52469;BME280;38381;53.688;10.776;2023-11-19T18:52:56;100092.50;;;9.75;97.06
52469;BME280;38381;53.688;10.776;2023-11-19T18:57:57;100101.13;;;9.77;97.12
52469;BME280;38381;53.688;10.776;2023-11-19T19:02:57;100090.78;;;9.71;97.47
52469;BME280;38381;53.688;10.776;2023-11-19T19:07:58;100105.47;;;9.64;97.44
52469;BME280;38381;53.688;10.776;2023-11-19T19:12:59;100101.16;;;9.66;97.04
52469;BME280;38381;53.688;10.776;2023-11-19T19:17:59;100101.13;;;9.57;97.29
52469;BME280;38381;53.688;10.776;2023-11-19T19:23:00;100110.66;;;9.58;97.63
52469;BME280;38381;53.688;10.776;2023-11-19T19:28:01;100100.25;;;9.53;97.53
52469;BME280;38381;53.688;10.776;2023-11-19T19:33:02;100106.31;;;9.44;98.33
52469;BME280;38381;53.688;10.776;2023-11-19T19:38:03;100104.59;;;9.43;98.69
52469;BME280;38381;53.688;10.776;2023-11-19T19:43:03;100110.63;;;9.42;99.40
52469;BME280;38381;53.688;10.776;2023-11-19T19:48:04;100104.59;;;9.42;99.32
52469;BME280;38381;53.688;10.776;2023-11-19T19:53:05;100102.00;;;9.53;99.73
52469;BME280;38381;53.688;10.776;2023-11-19T19:58:06;100117.53;;;9.53;99.92
52469;BME280;38381;53.688;10.776;2023-11-19T20:03:08;100115.81;;;9.55;100.00
52469;BME280;38381;53.688;10.776;2023-11-19T20:08:08;100108.88;;;9.37;100.00
52469;BME280;38381;53.688;10.776;2023-11-19T20:13:09;100119.25;;;9.61;100.00
52469;BME280;38381;53.688;10.776;2023-11-19T20:18:09;100120.97;;;9.55;100.00
52469;BME280;38381;53.688;10.776;2023-11-19T20:23:12;100120.13;;;9.54;100.00
52469;BME280;38381;53.688;10.776;2023-11-19T20:28:12;100118.41;;;9.62;100.00
52469;BME280;38381;53.688;10.776;2023-11-19T20:33:13;100117.53;;;9.53;100.00
52469;BME280;38381;53.688;10.776;2023-11-19T20:38:13;100110.63;;;9.65;100.00
52469;BME280;38381;53.688;10.776;2023-11-19T20:43:14;100115.81;;;9.67;100.00
52469;BME280;38381;53.688;10.776;2023-11-19T20:48:15;100119.28;;;9.60;100.00
52469;BME280;38381;53.688;10.776;2023-11-19T20:53:15;100116.69;;;9.72;100.00
52469;BME280;38381;53.688;10.776;2023-11-19T20:58:16;100121.84;;;9.69;100.00
52469;BME280;38381;53.688;10.776;2023-11-19T21:03:17;100123.56;;;9.79;100.00
52469;BME280;38381;53.688;10.776;2023-11-19T21:08:18;100121.84;;;9.91;100.00
52469;BME280;38381;53.688;10.776;2023-11-19T21:13:19;100121.84;;;9.80;100.00
52469;BME280;38381;53.688;10.776;2023-11-19T21:18:20;100125.28;;;9.71;100.00
52469;BME280;38381;53.688;10.776;2023-11-19T21:23:20;100117.53;;;9.63;100.00
52469;BME280;38381;53.688;10.776;2023-11-19T21:28:28;100113.22;;;9.82;100.00
52469;BME280;38381;53.688;10.776;2023-11-19T21:33:30;100112.34;;;9.85;100.00
52469;BME280;38381;53.688;10.776;2023-11-19T21:38:30;100104.59;;;9.65;100.00
52469;BME280;38381;53.688;10.776;2023-11-19T21:43:31;100106.31;;;9.78;100.00
52469;BME280;38381;53.688;10.776;2023-11-19T21:48:33;100101.13;;;9.91;100.00
52469;BME280;38381;53.688;10.776;2023-11-19T21:53:34;100106.28;;;9.97;100.00
52469;BME280;38381;53.688;10.776;2023-11-19T21:58:34;100101.97;;;9.91;100.00
52469;BME280;38381;53.688;10.776;2023-11-19T22:03:35;100095.94;;;9.81;100.00
52469;BME280;38381;53.688;10.776;2023-11-19T22:08:37;100090.78;;;9.78;100.00
52469;BME280;38381;53.688;10.776;2023-11-19T22:13:37;100095.94;;;9.95;100.00
52469;BME280;38381;53.688;10.776;2023-11-19T22:18:38;100090.75;;;9.97;100.00
52469;BME280;38381;53.688;10.776;2023-11-19T22:23:38;100088.16;;;9.95;100.00
52469;BME280;38381;53.688;10.776;2023-11-19T22:28:39;100082.97;;;9.97;100.00
52469;BME280;38381;53.688;10.776;2023-11-19T22:33:41;100088.16;;;10.01;100.00
52469;BME280;38381;53.688;10.776;2023-11-19T22:38:42;100085.56;;;9.97;100.00
52469;BME280;38381;53.688;10.776;2023-11-19T22:43:45;100078.69;;;9.85;100.00
52469;BME280;38381;53.688;10.776;2023-11-19T22:48:46;100075.22;;;9.97;100.00
52469;BME280;38381;53.688;10.776;2023-11-19T22:53:46;100079.53;;;9.92;100.00
52469;BME280;38381;53.688;10.776;2023-11-19T22:58:47;100070.88;;;10.05;100.00
52469;BME280;38381;53.688;10.776;2023-11-19T23:03:49;100076.06;;;10.02;100.00
52469;BME280;38381;53.688;10.776;2023-11-19T23:08:50;100070.00;;;10.09;100.00
52469;BME280;38381;53.688;10.776;2023-11-19T23:13:50;100070.88;;;9.94;100.00
52469;BME280;38381;53.688;10.776;2023-11-19T23:18:51;100080.41;;;9.97;100.00
52469;BME280;38381;53.688;10.776;2023-11-19T23:23:52;100073.50;;;9.83;100.00
52469;BME280;38381;53.688;10.776;2023-11-19T23:28:52;100073.53;;;9.74;100.00
52469;BME280;38381;53.688;10.776;2023-11-19T23:33:53;100076.09;;;9.83;100.00
52469;BME280;38381;53.688;10.776;2023-11-19T23:38:53;100078.69;;;9.86;100.00
52469;BME280;38381;53.688;10.776;2023-11-19T23:43:54;100084.72;;;9.82;100.00
52469;BME280;38381;53.688;10.776;2023-11-19T23:48:54;100089.03;;;9.71;100.00
52469;BME280;38381;53.688;10.776;2023-11-19T23:53:55;100077.81;;;9.77;100.00
52469;BME280;38381;53.688;10.776;2023-11-19T23:58:56;100075.25;;;9.69;100.00
